Time;durP1;ratioP1;P1;durP2;ratioP2;P2;SDS_P1;SDS_P2;PMS_P1;PMS_P2;Temp;Humidity;BMP_temperature;BMP_pressure;BME280_temperature;BME280_humidity;BME280_pressure;Samples;Min_cycle;Max_cycle;Signal;HPM_P1;HPM_P2
2022/02/28 00:01:05;;;;;;;11.55;3.10;;;;;;;13.50;69.67;101431.31;2053668;28;20094;-77
2022/02/28 00:02:30;;;;;;;10.93;2.97;;;;;;;13.48;69.42;101430.38;2067714;28;20076;-77
2022/02/28 00:03:53;;;;;;;6.63;1.90;;;;;;;13.44;69.44;101433.88;2059739;28;20050;-77
2022/02/28 00:05:15;;;;;;;10.10;2.20;;;;;;;13.40;69.53;101430.28;2067297;28;20050;-77
2022/02/28 00:06:38;;;;;;;6.65;2.15;;;;;;;13.37;69.62;101432.91;2059794;28;20050;-77
2022/02/28 00:07:59;;;;;;;13.52;2.97;;;;;;;13.32;69.88;101436.34;2066680;28;20049;-77
2022/02/28 00:09:23;;;;;;;5.70;1.73;;;;;;;13.24;70.20;101436.22;2069536;28;20104;-77
2022/02/28 00:10:46;;;;;;;14.45;2.60;;;;;;;13.19;70.39;101429.09;2061284;28;20137;-77
2022/02/28 00:12:08;;;;;;;8.27;2.55;;;;;;;13.16;70.31;101436.09;2062083;28;20035;-78
2022/02/28 00:13:31;;;;;;;11.30;4.22;;;;;;;13.08;70.13;101431.50;2062097;28;20042;-77
2022/02/28 00:14:54;;;;;;;11.32;2.95;;;;;;;13.02;70.01;101434.06;2068422;28;20466;-77
2022/02/28 00:16:17;;;;;;;11.88;4.00;;;;;;;12.99;70.07;101441.97;2063174;28;20042;-77
2022/02/28 00:17:40;;;;;;;6.88;2.63;;;;;;;13.01;70.07;101434.91;2068375;28;20060;-77
2022/02/28 00:19:03;;;;;;;14.57;3.65;;;;;;;12.99;69.76;101424.31;2074146;28;20042;-77
2022/02/28 00:20:26;;;;;;;7.05;2.38;;;;;;;12.97;69.46;101419.84;2065665;28;20569;-77
2022/02/28 00:21:49;;;;;;;6.28;1.80;;;;;;;12.89;69.14;101417.06;2063944;28;20141;-77
2022/02/28 00:23:10;;;;;;;8.10;2.33;;;;;;;12.87;69.16;101416.13;2063071;28;20127;-77
2022/02/28 00:24:32;;;;;;;9.15;2.15;;;;;;;12.87;69.18;101413.50;2060278;28;20042;-77
2022/02/28 00:25:56;;;;;;;7.10;1.70;;;;;;;12.85;68.93;101409.06;2054320;28;20629;-77
2022/02/28 00:27:18;;;;;;;11.45;2.10;;;;;;;12.85;68.78;101399.34;2064004;28;20377;-77
2022/02/28 00:28:41;;;;;;;6.72;1.65;;;;;;;12.88;68.73;101394.09;2057210;28;20420;-77
2022/02/28 00:30:06;;;;;;;9.25;1.80;;;;;;;12.94;68.51;101394.19;2062901;28;20050;-77
2022/02/28 00:31:28;;;;;;;8.57;2.40;;;;;;;12.95;68.20;101389.78;2069934;28;20108;-77
2022/02/28 00:32:53;;;;;;;10.10;1.77;;;;;;;12.97;68.11;101398.66;2060252;28;20050;-77
2022/02/28 00:34:14;;;;;;;5.82;1.67;;;;;;;12.94;67.95;101387.97;2077103;28;20076;-77
2022/02/28 00:35:38;;;;;;;6.68;2.10;;;;;;;12.88;67.85;101388.78;2060019;28;20047;-77
2022/02/28 00:37:00;;;;;;;8.18;2.90;;;;;;;12.84;67.90;101386.06;2052844;28;20606;-77
2022/02/28 00:38:24;;;;;;;8.80;3.22;;;;;;;12.81;67.91;101384.25;2068605;28;20100;-77
2022/02/28 00:39:46;;;;;;;14.38;4.72;;;;;;;12.77;67.85;101385.97;2058574;28;20101;-77
2022/02/28 00:41:08;;;;;;;9.75;3.90;;;;;;;12.71;67.51;101391.16;2065734;28;20092;-77
2022/02/28 00:42:30;;;;;;;14.95;4.53;;;;;;;12.64;67.66;101399.88;2062540;28;20050;-77
2022/02/28 00:43:52;;;;;;;11.23;3.35;;;;;;;12.65;67.87;101403.41;2044228;28;20118;-77
2022/02/28 00:45:16;;;;;;;10.10;3.45;;;;;;;12.64;67.71;101407.81;2066168;28;20061;-77
2022/02/28 00:46:40;;;;;;;12.13;4.03;;;;;;;12.63;67.70;101406.03;2071112;28;20084;-77
2022/02/28 00:48:04;;;;;;;9.55;4.00;;;;;;;12.63;67.00;101405.13;2065662;28;20076;-77
2022/02/28 00:49:27;;;;;;;7.72;3.33;;;;;;;12.58;66.64;101398.88;2062822;28;20050;-77
2022/02/28 00:50:49;;;;;;;7.82;3.50;;;;;;;12.56;66.50;101400.59;2075676;28;20625;-78
2022/02/28 00:52:12;;;;;;;8.57;2.58;;;;;;;12.58;66.57;101415.66;2065183;28;20563;-76
2022/02/28 00:53:35;;;;;;;6.50;2.17;;;;;;;12.61;66.38;101417.44;2068545;28;20080;-77
2022/02/28 00:54:57;;;;;;;12.32;2.17;;;;;;;12.64;65.52;101421.06;2071146;28;20046;-77
2022/02/28 00:56:19;;;;;;;5.88;2.90;;;;;;;12.69;65.58;101419.38;2065253;28;20046;-77
2022/02/28 00:57:43;;;;;;;5.97;2.35;;;;;;;12.73;65.31;101426.50;2062906;28;20050;-77
2022/02/28 00:59:05;;;;;;;9.43;2.33;;;;;;;12.75;65.01;101430.06;2055534;28;20042;-77
2022/02/28 01:00:28;;;;;;;5.78;1.73;;;;;;;12.77;64.66;101415.13;2067917;28;20058;-77
2022/02/28 01:01:49;;;;;;;6.65;1.60;;;;;;;12.80;64.20;101422.19;2054872;28;20054;-77
2022/02/28 01:03:14;;;;;;;2.75;1.20;;;;;;;12.84;63.93;101416.09;2055524;28;20057;-77
2022/02/28 01:04:36;;;;;;;3.25;0.73;;;;;;;12.87;63.58;101426.75;2066975;28;20077;-77
2022/02/28 01:05:59;;;;;;;3.85;0.93;;;;;;;12.90;63.18;101418.84;2071052;28;20080;-77
2022/02/28 01:07:20;;;;;;;8.75;1.55;;;;;;;12.93;62.83;101413.59;2062783;28;20092;-77
2022/02/28 01:08:43;;;;;;;8.85;1.52;;;;;;;12.97;62.62;101411.91;2065280;28;20061;-77
2022/02/28 01:10:08;;;;;;;2.83;0.75;;;;;;;13.02;62.32;101408.44;2060413;28;20038;-77
2022/02/28 01:11:30;;;;;;;6.32;1.38;;;;;;;13.07;61.93;101406.75;2067388;28;20054;-76
2022/02/28 01:12:53;;;;;;;6.65;1.23;;;;;;;13.14;61.80;101418.38;2063564;28;20047;-77
2022/02/28 01:14:16;;;;;;;5.65;2.55;;;;;;;13.15;61.73;101418.41;2068499;28;20156;-77
2022/02/28 01:15:39;;;;;;;6.47;1.50;;;;;;;13.17;61.52;101415.78;2068711;28;20080;-76
2022/02/28 01:17:00;;;;;;;5.82;1.70;;;;;;;13.13;61.14;101406.88;2061125;28;20046;-77
2022/02/28 01:18:24;;;;;;;7.85;1.60;;;;;;;13.12;61.29;101414.81;2068175;28;20141;-77
2022/02/28 01:19:47;;;;;;;7.20;1.85;;;;;;;13.08;61.29;101410.31;2062473;28;20100;-77
2022/02/28 01:21:08;;;;;;;9.00;1.60;;;;;;;13.08;61.19;101405.00;2059968;28;20561;-77
2022/02/28 01:22:31;;;;;;;4.22;1.55;;;;;;;13.07;60.94;101403.22;2065389;28;20101;-77
2022/02/28 01:23:52;;;;;;;6.40;2.08;;;;;;;13.07;61.09;101400.56;2062745;28;20099;-77
2022/02/28 01:25:15;;;;;;;4.57;1.88;;;;;;;13.06;60.93;101402.31;2059803;28;20046;-77
2022/02/28 01:26:37;;;;;;;7.07;1.45;;;;;;;13.06;60.93;101388.19;2078279;28;20067;-77
2022/02/28 01:28:00;;;;;;;6.22;1.88;;;;;;;13.04;61.08;101392.56;2065200;28;20061;-77
2022/02/28 01:29:22;;;;;;;8.23;2.30;;;;;;;13.02;61.06;101386.34;2062616;28;20042;-77
2022/02/28 01:30:45;;;;;;;7.68;1.77;;;;;;;13.01;61.17;101388.09;2062668;28;20054;-77
2022/02/28 01:32:07;;;;;;;4.35;1.27;;;;;;;13.00;60.93;101396.91;2066047;28;20056;-77
2022/02/28 01:33:32;;;;;;;9.25;2.78;;;;;;;12.99;61.06;101395.16;2070701;28;20073;-77
2022/02/28 01:34:55;;;;;;;9.07;1.90;;;;;;;12.96;61.13;101400.41;2053666;28;20050;-77
2022/02/28 01:36:17;;;;;;;7.05;1.50;;;;;;;12.95;61.16;101401.25;2057655;28;20136;-77
2022/02/28 01:37:41;;;;;;;4.38;0.70;;;;;;;12.94;61.19;101395.94;2060130;28;20050;-77
2022/02/28 01:39:05;;;;;;;3.05;1.02;;;;;;;12.93;61.23;101394.19;2074781;28;20076;-77
2022/02/28 01:40:26;;;;;;;6.75;1.25;;;;;;;12.91;61.17;101390.59;2061844;28;20066;-77
2022/02/28 01:41:49;;;;;;;9.82;2.17;;;;;;;12.76;61.14;101389.47;2060072;28;20050;-77
2022/02/28 01:43:12;;;;;;;6.45;1.92;;;;;;;12.51;61.39;101396.97;2056009;28;21133;-77
2022/02/28 01:44:33;;;;;;;8.07;1.90;;;;;;;12.26;61.86;101396.53;2052743;28;20153;-77
2022/02/28 01:45:56;;;;;;;7.38;1.77;;;;;;;12.06;62.27;101405.84;2067623;28;20061;-77
2022/02/28 01:47:17;;;;;;;25.65;15.40;;;;;;;11.95;62.45;101407.34;2070399;28;20101;-77
2022/02/28 01:48:41;;;;;;;30.80;20.60;;;;;;;11.96;62.77;101406.50;2063704;28;20046;-77
2022/02/28 01:50:03;;;;;;;20.70;11.88;;;;;;;11.93;62.84;101404.72;2054222;28;20693;-76
2022/02/28 01:51:26;;;;;;;12.70;8.02;;;;;;;11.94;62.78;101393.28;2068116;28;20597;-76
2022/02/28 01:52:49;;;;;;;9.38;3.95;;;;;;;12.00;62.75;101388.94;2057544;28;20047;-77
2022/02/28 01:54:10;;;;;;;13.60;5.32;;;;;;;12.07;62.53;101393.50;2055613;28;20074;-77
2022/02/28 01:55:34;;;;;;;12.70;5.28;;;;;;;12.11;62.48;101398.00;2067687;28;20527;-76
2022/02/28 01:56:56;;;;;;;10.60;7.95;;;;;;;12.11;62.35;101398.88;2059452;28;20488;-77
2022/02/28 01:58:20;;;;;;;12.93;8.38;;;;;;;12.09;62.38;101402.34;2067683;28;20056;-77
2022/02/28 01:59:41;;;;;;;10.40;4.25;;;;;;;12.11;62.50;101395.34;2056698;28;20142;-77
2022/02/28 02:01:04;;;;;;;6.32;1.50;;;;;;;12.14;62.61;101398.06;2051700;28;20047;-77
2022/02/28 02:02:27;;;;;;;2.90;0.73;;;;;;;12.19;62.73;101410.50;2061334;28;20420;-77
2022/02/28 02:03:51;;;;;;;3.97;0.98;;;;;;;12.28;62.76;101415.06;2062479;28;20141;-77
2022/02/28 02:05:13;;;;;;;10.88;4.18;;;;;;;12.31;62.52;101415.16;2069963;28;20049;-77
2022/02/28 02:06:36;;;;;;;13.18;3.97;;;;;;;12.22;62.37;101410.56;2060238;28;20138;-77
2022/02/28 02:08:00;;;;;;;7.80;2.60;;;;;;;12.18;62.47;101408.72;2062380;28;20043;-77
2022/02/28 02:09:24;;;;;;;5.57;1.23;;;;;;;12.19;62.55;101406.97;2068527;28;20057;-77
2022/02/28 02:10:47;;;;;;;4.88;1.10;;;;;;;12.22;62.54;101409.66;2060187;28;20568;-77
2022/02/28 02:12:10;;;;;;;8.85;1.10;;;;;;;12.29;62.50;101391.28;2051963;28;20050;-77
2022/02/28 02:13:33;;;;;;;5.45;1.73;;;;;;;12.35;62.45;101398.44;2063256;28;20042;-77
2022/02/28 02:14:55;;;;;;;5.93;1.30;;;;;;;12.41;62.45;101397.66;2070629;28;20054;-77
2022/02/28 02:16:18;;;;;;;4.13;1.20;;;;;;;12.43;62.36;101390.63;2059507;28;20052;-77
2022/02/28 02:17:40;;;;;;;4.10;1.10;;;;;;;12.45;62.37;101391.56;2054207;28;20058;-77
2022/02/28 02:19:05;;;;;;;9.23;1.48;;;;;;;12.47;62.42;101388.06;2059111;28;20054;-77
2022/02/28 02:20:37;;;;;;;7.15;2.03;;;;;;;12.49;62.48;101394.28;2065395;28;20076;-77
2022/02/28 02:22:00;;;;;;;8.68;1.48;;;;;;;12.48;62.53;101392.50;2057919;28;20519;-77
2022/02/28 02:23:22;;;;;;;6.88;1.77;;;;;;;12.46;62.65;101394.25;2076012;28;20057;-77
2022/02/28 02:24:44;;;;;;;;;;;;;;;12.50;62.43;101396.09;2059593;28;20043;-77
2022/02/28 02:26:08;;;;;;;5.93;1.80;;;;;;;12.46;62.46;101401.31;2062030;28;19922;-77
2022/02/28 02:27:30;;;;;;;4.82;1.30;;;;;;;12.43;62.60;101394.19;2065307;28;20431;-77
2022/02/28 02:28:53;;;;;;;8.65;1.90;;;;;;;12.42;62.73;101387.09;2059706;28;20482;-77
2022/02/28 02:30:14;;;;;;;6.85;2.20;;;;;;;12.41;62.71;101385.31;2070086;28;20128;-78
2022/02/28 02:31:38;;;;;;;8.07;1.60;;;;;;;12.40;62.78;101393.25;2063922;28;20053;-77
2022/02/28 02:33:00;;;;;;;5.20;0.95;;;;;;;12.35;62.80;101388.75;2059795;28;20562;-76
2022/02/28 02:34:23;;;;;;;7.95;1.35;;;;;;;12.33;62.85;101389.59;2056468;28;20059;-77
2022/02/28 02:35:50;;;;;;;6.07;1.30;;;;;;;12.32;62.91;101398.41;2062043;28;20137;-77
2022/02/28 02:37:15;;;;;;;4.82;1.02;;;;;;;12.27;63.05;101394.78;2061152;28;20054;-76
2022/02/28 02:38:38;;;;;;;4.70;0.82;;;;;;;12.25;63.08;101399.16;2061756;28;20057;-77
2022/02/28 02:40:01;;;;;;;6.25;1.40;;;;;;;12.22;62.99;101402.63;2067806;28;20050;-77
2022/02/28 02:41:24;;;;;;;7.13;1.42;;;;;;;12.20;62.98;101395.53;2056486;28;20484;-77
2022/02/28 02:42:45;;;;;;;7.45;0.93;;;;;;;12.20;62.93;101390.22;2067656;28;20049;-77
2022/02/28 02:44:08;;;;;;;3.08;0.85;;;;;;;12.19;62.92;101397.28;2056528;28;20133;-77
2022/02/28 02:45:30;;;;;;;6.88;1.05;;;;;;;12.18;62.88;101391.94;2067676;28;20085;-76
2022/02/28 02:46:54;;;;;;;5.28;0.85;;;;;;;12.16;62.84;101394.56;2060955;28;20543;-77
2022/02/28 02:48:24;;;;;;;4.50;1.15;;;;;;;12.17;62.64;101400.75;2055294;28;20070;-77
2022/02/28 02:49:57;;;;;;;8.55;1.10;;;;;;;12.13;62.65;101397.16;2062290;28;20117;-77
2022/02/28 02:51:21;;;;;;;5.28;1.02;;;;;;;12.14;62.58;101400.72;2061987;28;20046;-77
2022/02/28 02:52:45;;;;;;;10.68;1.40;;;;;;;12.11;62.58;101396.22;2062218;28;20081;-77
2022/02/28 02:54:09;;;;;;;7.38;1.17;;;;;;;12.09;62.53;101397.06;2070018;28;20555;-77
2022/02/28 02:55:34;;;;;;;10.57;1.90;;;;;;;12.07;62.54;101399.69;2056413;28;20046;-77
2022/02/28 02:56:55;;;;;;;5.68;1.05;;;;;;;12.06;62.47;101399.66;2052144;28;20053;-77
2022/02/28 02:58:18;;;;;;;4.43;0.73;;;;;;;12.03;62.45;101389.00;2043331;29;20512;-77
2022/02/28 02:59:43;;;;;;;8.48;1.60;;;;;;;12.00;62.48;101383.66;2058227;28;20038;-77
2022/02/28 03:01:05;;;;;;;9.52;1.33;;;;;;;11.97;62.54;101389.78;2062644;28;20077;-77
2022/02/28 03:02:31;;;;;;;7.15;1.55;;;;;;;11.92;62.54;101392.34;2056302;28;20475;-77
2022/02/28 03:03:56;;;;;;;6.82;1.20;;;;;;;11.87;62.59;101398.41;2055317;28;20596;-77
2022/02/28 03:05:17;;;;;;;7.90;2.00;;;;;;;11.83;62.66;101397.44;2062077;28;20053;-77
2022/02/28 03:06:42;;;;;;;;;;;;;;;11.77;62.60;101402.59;2057710;28;20042;-77
2022/02/28 03:08:05;;;;;;;5.60;1.30;;;;;;;11.64;62.77;101408.44;2059527;28;19921;-76
2022/02/28 03:09:29;;;;;;;3.28;0.82;;;;;;;11.48;62.83;101407.25;2051503;28;20043;-77
2022/02/28 03:10:52;;;;;;;7.30;1.10;;;;;;;11.34;63.12;101405.13;2066472;28;20041;-77
2022/02/28 03:12:14;;;;;;;5.13;1.00;;;;;;;11.25;63.41;101400.53;2058105;28;20055;-77
2022/02/28 03:13:37;;;;;;;2.65;0.80;;;;;;;11.21;63.64;101396.03;2061567;28;20050;-77
2022/02/28 03:15:00;;;;;;;8.98;3.13;;;;;;;11.19;63.61;101389.81;2059460;28;20133;-77
2022/02/28 03:16:23;;;;;;;8.48;2.35;;;;;;;11.20;63.66;101402.19;2057504;28;20404;-77
2022/02/28 03:17:46;;;;;;;2.92;1.30;;;;;;;11.22;63.53;101394.28;2059427;28;20412;-77
2022/02/28 03:19:09;;;;;;;9.07;3.35;;;;;;;11.25;63.50;101381.13;2054390;28;20047;-76
2022/02/28 03:20:39;;;;;;;5.95;1.33;;;;;;;11.26;63.42;101381.16;2061155;28;20046;-77
2022/02/28 03:22:02;;;;;;;6.78;1.80;;;;;;;11.18;63.26;101381.00;2056093;28;20062;-77
2022/02/28 03:23:29;;;;;;;10.60;7.07;;;;;;;11.09;63.54;101383.41;2054780;28;20054;-77
2022/02/28 03:24:58;;;;;;;12.50;11.23;;;;;;;11.03;63.69;101379.72;2061550;28;20137;-77
2022/02/28 03:26:21;;;;;;;13.32;9.23;;;;;;;11.05;63.81;101380.66;2058067;28;20299;-76
2022/02/28 03:27:45;;;;;;;10.93;8.25;;;;;;;11.08;63.83;101372.84;2069755;28;20042;-77
2022/02/28 03:29:08;;;;;;;8.20;5.10;;;;;;;11.11;63.76;101370.25;2061683;28;20053;-77
2022/02/28 03:30:29;;;;;;;12.63;4.53;;;;;;;11.12;63.82;101372.03;2053619;28;20113;-77
2022/02/28 03:31:53;;;;;;;15.73;2.53;;;;;;;11.10;63.69;101376.38;2066916;28;20049;-77
2022/02/28 03:33:15;;;;;;;5.88;1.95;;;;;;;11.03;63.76;101377.09;2053444;28;20512;-76
2022/02/28 03:34:38;;;;;;;12.77;4.38;;;;;;;10.91;63.85;101369.78;2062421;28;20053;-77
2022/02/28 03:36:02;;;;;;;5.25;3.50;;;;;;;10.85;64.11;101379.28;2050451;28;20047;-76
2022/02/28 03:37:27;;;;;;;8.45;1.60;;;;;;;10.81;64.25;101370.44;2057147;28;20563;-78
2022/02/28 03:38:50;;;;;;;9.15;2.10;;;;;;;10.72;64.34;101373.72;2058239;28;20096;-77
2022/02/28 03:40:12;;;;;;;8.02;2.00;;;;;;;10.68;64.49;101378.91;2058769;28;20449;-77
2022/02/28 03:41:34;;;;;;;;;;;;;;;10.66;64.49;101375.31;2067649;28;20641;-77
2022/02/28 03:43:00;;;;;;;7.88;2.42;;;;;;;10.57;64.53;101375.97;2064122;28;19921;-77
2022/02/28 03:44:30;;;;;;;12.00;8.15;;;;;;;10.53;64.61;101386.41;2055123;28;20047;-76
2022/02/28 03:45:58;;;;;;;9.88;7.97;;;;;;;10.53;64.71;101392.59;2061007;28;20077;-76
2022/02/28 03:47:26;;;;;;;8.73;3.88;;;;;;;10.54;64.70;101393.50;2061947;28;20050;-77
2022/02/28 03:49:08;;;;;;;7.82;2.30;;;;;;;10.56;64.45;101386.50;2066840;28;20137;-77
2022/02/28 03:50:54;;;;;;;8.23;2.00;;;;;;;10.47;64.49;101389.81;2056059;28;20435;-77
2022/02/28 03:52:16;;;;;;;6.30;2.33;;;;;;;10.42;64.61;101394.06;2050300;28;20133;-76
2022/02/28 03:54:19;;;;;;;10.02;2.20;;;;;;;10.42;64.55;101398.47;2062842;28;20097;-77
2022/02/28 03:55:42;;;;;;;3.67;1.20;;;;;;;10.47;64.69;101405.63;2064233;28;20042;-77
2022/02/28 03:57:04;;;;;;;4.82;1.33;;;;;;;10.45;64.55;101403.78;2059080;28;20150;-76
2022/02/28 03:58:26;;;;;;;4.63;1.10;;;;;;;10.39;64.60;101396.63;2059265;28;20043;-77
2022/02/28 03:59:48;;;;;;;3.08;1.42;;;;;;;10.35;64.80;101398.28;2058964;28;20050;-77
2022/02/28 04:01:10;;;;;;;6.55;1.25;;;;;;;10.36;64.67;101386.91;2055307;28;20141;-77
2022/02/28 04:02:35;;;;;;;5.32;2.15;;;;;;;10.43;64.65;101394.97;2051282;28;20051;-77
2022/02/28 04:03:57;;;;;;;13.57;4.68;;;;;;;10.54;64.43;101393.50;2051415;28;20543;-76
2022/02/28 04:05:20;;;;;;;9.70;3.45;;;;;;;10.63;64.35;101389.31;2055506;28;20050;-77
2022/02/28 04:06:46;;;;;;;7.18;2.40;;;;;;;10.76;63.98;101395.84;2059150;28;20042;-77
2022/02/28 04:08:11;;;;;;;4.75;1.40;;;;;;;10.83;63.79;101394.25;2055375;28;20505;-77
2022/02/28 04:09:34;;;;;;;6.07;1.83;;;;;;;10.91;63.67;101395.28;2059326;28;20050;-77
2022/02/28 04:10:59;;;;;;;8.85;3.50;;;;;;;10.92;63.50;101397.97;2055966;28;20050;-77
2022/02/28 04:12:22;;;;;;;7.53;2.72;;;;;;;10.94;63.44;101398.03;2067049;28;20157;-76
2022/02/28 04:13:43;;;;;;;6.63;1.35;;;;;;;10.95;63.57;101408.63;2047949;29;20054;-77
2022/02/28 04:15:09;;;;;;;8.77;1.85;;;;;;;11.00;63.68;101404.34;2048776;28;20042;-77
2022/02/28 04:16:31;;;;;;;5.00;1.35;;;;;;;11.05;63.53;101402.69;2051275;28;20063;-77
2022/02/28 04:18:17;;;;;;;12.90;1.98;;;;;;;11.08;63.37;101394.88;2063888;28;20081;-77
2022/02/28 04:20:09;;;;;;;7.93;1.88;;;;;;;11.09;63.23;101383.41;2068580;28;20145;-77
2022/02/28 04:21:31;;;;;;;7.60;1.10;;;;;;;11.04;63.34;101381.53;2056447;28;20142;-77
2022/02/28 04:22:54;;;;;;;6.30;1.10;;;;;;;10.99;63.75;101373.50;2059705;28;20092;-77
2022/02/28 04:24:16;;;;;;;11.15;1.52;;;;;;;10.96;63.98;101378.69;2053686;28;20042;-76
2022/02/28 04:25:40;;;;;;;1.35;0.60;;;;;;;11.01;64.14;101387.66;2053382;28;20520;-76
2022/02/28 04:27:03;;;;;;;10.30;1.23;;;;;;;11.06;64.21;101387.75;2051351;28;20054;-77
2022/02/28 04:28:25;;;;;;;7.50;1.25;;;;;;;11.08;64.00;101392.22;2051273;28;20082;-77
2022/02/28 04:29:48;;;;;;;9.35;1.48;;;;;;;11.16;63.85;101395.00;2050713;28;20439;-76
2022/02/28 04:31:14;;;;;;;9.55;3.40;;;;;;;11.21;63.77;101397.78;2053873;28;20146;-77
2022/02/28 04:32:36;;;;;;;7.60;4.43;;;;;;;11.19;63.50;101395.09;2053477;28;20056;-77
2022/02/28 04:34:01;;;;;;;6.65;2.55;;;;;;;11.16;63.64;101385.34;2059876;28;20449;-77
2022/02/28 04:35:24;;;;;;;8.75;2.72;;;;;;;11.18;63.65;101383.63;2058967;28;20039;-77
2022/02/28 04:36:59;;;;;;;6.00;2.00;;;;;;;11.21;63.63;101390.75;2055033;28;20070;-77
2022/02/28 04:38:22;;;;;;;10.10;1.73;;;;;;;11.19;63.60;101388.06;2050742;28;20102;-77
2022/02/28 04:39:46;;;;;;;7.88;1.52;;;;;;;11.19;63.69;101387.19;2051469;28;20043;-77
2022/02/28 04:41:11;;;;;;;6.40;1.45;;;;;;;11.21;63.59;101382.81;2058725;28;20054;-77
2022/02/28 04:42:35;;;;;;;6.43;1.00;;;;;;;11.21;63.53;101381.94;2055212;28;20050;-77
2022/02/28 04:43:57;;;;;;;11.75;2.67;;;;;;;11.22;63.41;101383.72;2059222;28;20042;-77
2022/02/28 04:45:24;;;;;;;7.30;2.33;;;;;;;11.19;63.35;101377.50;2059706;28;20551;-76
2022/02/28 04:46:48;;;;;;;12.85;2.08;;;;;;;11.16;63.43;101380.06;2055698;28;20325;-76
2022/02/28 04:48:43;;;;;;;7.82;1.40;;;;;;;11.08;63.19;101376.38;2064641;28;20134;-77
2022/02/28 04:50:27;;;;;;;8.10;2.65;;;;;;;11.00;63.40;101372.66;2055794;28;20050;-76
2022/02/28 04:51:49;;;;;;;10.80;1.88;;;;;;;10.97;63.36;101377.84;2057061;28;20085;-76
2022/02/28 04:53:13;;;;;;;12.25;2.75;;;;;;;10.94;63.37;101376.88;2051612;28;20059;-76
2022/02/28 04:54:37;;;;;;;10.32;1.63;;;;;;;10.92;63.60;101381.25;2051058;28;20050;-77
2022/02/28 04:56:00;;;;;;;5.68;1.38;;;;;;;10.94;63.67;101383.06;2073875;28;20044;-76
2022/02/28 04:57:25;;;;;;;5.03;1.48;;;;;;;10.98;63.68;101378.75;2063837;28;20089;-77
2022/02/28 04:58:47;;;;;;;9.02;1.48;;;;;;;11.01;63.77;101389.41;2060211;28;20527;-76
2022/02/28 05:00:29;;;;;;;5.65;1.83;;;;;;;11.05;63.59;101380.66;2071432;28;20443;-77
2022/02/28 05:01:52;;;;;;;6.82;1.50;;;;;;;11.08;63.49;101381.66;2058146;28;20042;-76
2022/02/28 05:03:33;;;;;;;7.70;1.45;;;;;;;11.09;63.43;101379.91;2080770;28;20053;-76
2022/02/28 05:04:54;;;;;;;7.10;1.27;;;;;;;11.09;63.44;101383.41;2065186;28;20038;-77
2022/02/28 05:06:18;;;;;;;2.45;0.65;;;;;;;11.11;63.42;101386.09;2059152;28;20050;-76
2022/02/28 05:07:46;;;;;;;1.38;0.50;;;;;;;11.13;63.43;101382.66;2061418;28;20665;-77
2022/02/28 05:09:08;;;;;;;7.28;1.10;;;;;;;11.19;63.40;101389.81;2060180;28;20085;-77
2022/02/28 05:10:29;;;;;;;2.30;0.80;;;;;;;11.26;63.36;101398.78;2054696;28;20400;-77
2022/02/28 05:12:03;;;;;;;5.80;0.88;;;;;;;11.34;63.19;101389.28;2062816;28;20088;-77
2022/02/28 05:13:28;;;;;;;9.55;1.23;;;;;;;11.42;63.04;101385.06;2053321;28;20109;-77
2022/02/28 05:14:50;;;;;;;7.75;1.02;;;;;;;11.48;62.89;101385.19;2062729;28;20050;-77
2022/02/28 05:16:13;;;;;;;2.92;1.38;;;;;;;11.55;62.90;101384.47;2062708;28;20520;-77
2022/02/28 05:17:37;;;;;;;16.88;0.90;;;;;;;11.63;62.20;101388.16;2070946;28;20046;-76
2022/02/28 05:19:00;;;;;;;4.40;1.10;;;;;;;11.71;62.06;101390.97;2061011;28;20431;-76
2022/02/28 05:20:23;;;;;;;7.25;0.93;;;;;;;11.78;61.81;101387.63;2066138;28;20050;-77
2022/02/28 05:21:46;;;;;;;6.65;1.40;;;;;;;11.84;61.60;101399.22;2059194;28;20050;-76
2022/02/28 05:23:08;;;;;;;5.13;0.88;;;;;;;11.90;61.29;101396.69;2057732;28;20685;-76
2022/02/28 05:24:32;;;;;;;4.68;0.55;;;;;;;11.97;61.11;101398.59;2068282;28;20443;-76
2022/02/28 05:25:54;;;;;;;4.80;0.60;;;;;;;12.07;61.13;101393.50;2059498;28;20046;-76
2022/02/28 05:27:17;;;;;;;5.60;1.05;;;;;;;12.17;60.84;101392.81;2068229;28;20048;-76
2022/02/28 05:28:43;;;;;;;5.25;1.50;;;;;;;12.33;61.10;101392.25;2059364;28;20090;-77
2022/02/28 05:30:09;;;;;;;3.97;1.15;;;;;;;12.46;61.08;101396.00;2052810;28;20476;-76
2022/02/28 05:31:32;;;;;;;5.80;1.00;;;;;;;12.57;61.08;101403.28;2060681;28;20046;-76
2022/02/28 05:33:14;;;;;;;;;;;;;;;12.72;60.83;101403.56;2063509;28;20142;-75
2022/02/28 05:34:42;;;;;;;5.00;1.27;;;;;;;12.82;60.73;101393.09;2062617;28;19922;-76
2022/02/28 05:36:04;;;;;;;7.30;1.23;;;;;;;12.95;60.62;101400.38;2060889;28;20050;-76
2022/02/28 05:37:41;;;;;;;8.65;1.00;;;;;;;13.11;60.76;101395.34;2063328;28;20046;-76
2022/02/28 05:39:07;;;;;;;3.65;0.73;;;;;;;13.23;60.56;101392.03;2055009;28;20534;-76
2022/02/28 05:40:28;;;;;;;6.45;1.10;;;;;;;13.36;60.44;101396.63;2052117;28;20046;-76
2022/02/28 05:41:51;;;;;;;2.45;0.32;;;;;;;13.48;60.17;101393.25;2054711;28;20038;-76
2022/02/28 05:43:13;;;;;;;4.78;0.57;;;;;;;13.61;60.09;101400.50;2060053;28;20744;-76
2022/02/28 05:44:38;;;;;;;11.77;1.23;;;;;;;13.78;59.91;101398.09;2065879;28;20096;-76
2022/02/28 05:46:01;;;;;;;1.48;0.60;;;;;;;13.89;59.41;101394.69;2068074;28;20490;-76
2022/02/28 05:47:35;;;;;;;3.08;0.68;;;;;;;14.01;59.30;101391.28;2079303;28;20503;-76
2022/02/28 05:48:58;;;;;;;5.47;0.80;;;;;;;14.16;59.01;101385.28;2061648;28;20054;-76
2022/02/28 05:50:25;;;;;;;3.92;0.70;;;;;;;14.27;57.96;101388.91;2053730;28;20058;-75
2022/02/28 05:51:48;;;;;;;1.52;0.77;;;;;;;14.36;57.44;101400.53;2061910;28;20054;-76
2022/02/28 05:53:10;;;;;;;9.68;0.68;;;;;;;14.47;57.31;101397.13;2054546;28;20508;-76
2022/02/28 05:54:33;;;;;;;4.22;0.50;;;;;;;14.59;56.98;101392.81;2057752;28;20120;-76
2022/02/28 05:55:54;;;;;;;5.80;0.90;;;;;;;14.68;55.98;101390.25;2059599;28;20050;-76
2022/02/28 05:57:16;;;;;;;3.90;0.85;;;;;;;14.71;54.35;101389.38;2069652;28;20056;-76
2022/02/28 05:58:39;;;;;;;2.33;0.47;;;;;;;14.82;54.25;101385.06;2070100;28;20064;-76
2022/02/28 06:00:04;;;;;;;6.95;1.67;;;;;;;14.94;53.76;101390.47;2054139;28;20505;-76
2022/02/28 06:01:37;;;;;;;6.70;1.17;;;;;;;15.02;52.82;101391.44;2062544;28;20535;-77
2022/02/28 06:02:59;;;;;;;6.03;1.10;;;;;;;15.06;52.31;101390.56;2054742;28;20043;-76
2022/02/28 06:04:22;;;;;;;3.85;0.65;;;;;;;15.14;52.02;101407.47;2066515;28;20220;-76
2022/02/28 06:05:45;;;;;;;7.80;1.13;;;;;;;15.25;51.86;101398.66;2061951;28;20116;-77
2022/02/28 06:07:07;;;;;;;4.32;0.70;;;;;;;15.33;51.62;101407.59;2054656;28;20047;-77
2022/02/28 06:08:30;;;;;;;5.60;1.05;;;;;;;15.44;51.54;101403.22;2062542;28;20076;-77
2022/02/28 06:09:52;;;;;;;6.32;1.15;;;;;;;15.52;51.25;101409.47;2067988;28;20469;-77
2022/02/28 06:11:13;;;;;;;5.05;1.00;;;;;;;15.61;50.87;101406.03;2062381;28;20058;-76
2022/02/28 06:12:36;;;;;;;5.47;1.45;;;;;;;15.67;50.68;101408.72;2067298;28;20571;-77
2022/02/28 06:13:58;;;;;;;7.32;1.00;;;;;;;15.81;50.87;101399.03;2070285;28;20053;-77
2022/02/28 06:15:22;;;;;;;2.35;0.65;;;;;;;15.87;50.16;101404.38;2062361;28;20430;-77
2022/02/28 06:16:45;;;;;;;2.30;0.68;;;;;;;15.88;49.87;101399.03;2064894;28;20053;-77
2022/02/28 06:18:07;;;;;;;4.78;0.88;;;;;;;15.96;49.82;101401.72;2067742;28;20042;-77
2022/02/28 06:19:29;;;;;;;6.30;1.70;;;;;;;16.03;49.60;101399.97;2073892;28;20399;-77
2022/02/28 06:20:51;;;;;;;5.40;0.80;;;;;;;16.09;49.56;101398.22;2070266;28;20459;-77
2022/02/28 06:22:14;;;;;;;5.78;1.02;;;;;;;16.11;49.23;101396.47;2075762;28;20081;-77
2022/02/28 06:23:36;;;;;;;6.03;0.95;;;;;;;16.16;49.17;101397.38;2055861;28;20062;-77
2022/02/28 06:24:59;;;;;;;6.65;1.33;;;;;;;16.27;49.30;101405.41;2059863;28;20137;-77
2022/02/28 06:26:22;;;;;;;7.32;0.90;;;;;;;16.36;49.20;101402.75;2061806;28;20038;-77
2022/02/28 06:27:44;;;;;;;5.97;1.13;;;;;;;16.48;49.32;101405.44;2057233;28;20138;-76
2022/02/28 06:29:06;;;;;;;3.33;1.23;;;;;;;16.59;49.28;101402.81;2059265;28;20443;-77
2022/02/28 06:30:31;;;;;;;7.28;1.40;;;;;;;16.76;49.47;101409.06;2067553;28;20049;-77
2022/02/28 06:31:53;;;;;;;6.50;1.50;;;;;;;16.81;48.77;101409.06;2062257;28;20049;-77